sensor_id;sensor_type;location;lat;lon;timestamp;P1;durP1;ratioP1;P2;durP2;ratioP2
466;SDS011;72290;48.808;9.222;2023-08-30T04:46:22;42.35;;;25.45;;
466;SDS011;72290;48.808;9.222;2023-08-30T04:48:48;46.33;;;24.73;;
466;SDS011;72290;48.808;9.222;2023-08-30T04:51:14;35.17;;;21.80;;
466;SDS011;72290;48.808;9.222;2023-08-30T04:53:40;32.23;;;19.93;;
466;SDS011;72290;48.808;9.222;2023-08-30T04:56:13;40.60;;;20.93;;
466;SDS011;72290;48.808;9.222;2023-08-30T04:58:39;37.50;;;20.00;;
466;SDS011;72290;48.808;9.222;2023-08-30T05:01:05;37.77;;;21.20;;
466;SDS011;72290;48.808;9.222;2023-08-30T05:03:32;38.07;;;21.60;;
466;SDS011;72290;48.808;9.222;2023-08-30T05:05:58;40.50;;;22.70;;
466;SDS011;72290;48.808;9.222;2023-08-30T05:08:24;27.50;;;18.30;;
466;SDS011;72290;48.808;9.222;2023-08-30T05:10:50;33.40;;;18.60;;
466;SDS011;72290;48.808;9.222;2023-08-30T05:13:19;35.97;;;20.03;;
466;SDS011;72290;48.808;9.222;2023-08-30T05:15:45;39.00;;;21.27;;
466;SDS011;72290;48.808;9.222;2023-08-30T05:18:11;37.10;;;21.97;;
466;SDS011;72290;48.808;9.222;2023-08-30T05:20:37;32.00;;;18.67;;
466;SDS011;72290;48.808;9.222;2023-08-30T05:23:03;34.47;;;20.30;;
466;SDS011;72290;48.808;9.222;2023-08-30T05:25:29;29.27;;;18.37;;
466;SDS011;72290;48.808;9.222;2023-08-30T05:27:55;32.70;;;19.50;;
466;SDS011;72290;48.808;9.222;2023-08-30T05:30:21;32.33;;;18.10;;
466;SDS011;72290;48.808;9.222;2023-08-30T05:32:47;31.57;;;18.20;;
466;SDS011;72290;48.808;9.222;2023-08-30T05:35:13;28.30;;;17.33;;
466;SDS011;72290;48.808;9.222;2023-08-30T05:37:39;31.77;;;17.70;;
466;SDS011;72290;48.808;9.222;2023-08-30T05:40:05;26.80;;;17.00;;
466;SDS011;72290;48.808;9.222;2023-08-30T05:42:31;32.87;;;20.07;;
466;SDS011;72290;48.808;9.222;2023-08-30T05:44:57;29.00;;;17.83;;
466;SDS011;72290;48.808;9.222;2023-08-30T05:47:23;25.73;;;15.33;;
466;SDS011;72290;48.808;9.222;2023-08-30T05:49:49;32.80;;;18.30;;
466;SDS011;72290;48.808;9.222;2023-08-30T05:52:15;25.47;;;15.83;;
466;SDS011;72290;48.808;9.222;2023-08-30T05:54:44;25.23;;;15.03;;
466;SDS011;72290;48.808;9.222;2023-08-30T05:57:10;25.60;;;16.10;;
466;SDS011;72290;48.808;9.222;2023-08-30T05:59:36;26.10;;;16.37;;
466;SDS011;72290;48.808;9.222;2023-08-30T06:02:02;28.90;;;14.83;;
466;SDS011;72290;48.808;9.222;2023-08-30T06:04:29;31.23;;;19.00;;
466;SDS011;72290;48.808;9.222;2023-08-30T06:06:55;26.53;;;16.97;;
466;SDS011;72290;48.808;9.222;2023-08-30T06:09:21;23.67;;;15.73;;
466;SDS011;72290;48.808;9.222;2023-08-30T06:11:47;24.30;;;14.90;;
466;SDS011;72290;48.808;9.222;2023-08-30T06:14:13;24.33;;;16.10;;
466;SDS011;72290;48.808;9.222;2023-08-30T06:16:39;21.60;;;14.27;;
466;SDS011;72290;48.808;9.222;2023-08-30T06:19:09;20.53;;;15.00;;
466;SDS011;72290;48.808;9.222;2023-08-30T06:21:35;25.07;;;14.87;;
466;SDS011;72290;48.808;9.222;2023-08-30T06:24:01;19.83;;;13.63;;
466;SDS011;72290;48.808;9.222;2023-08-30T06:26:28;23.53;;;14.67;;
466;SDS011;72290;48.808;9.222;2023-08-30T06:28:54;25.10;;;14.13;;
466;SDS011;72290;48.808;9.222;2023-08-30T06:31:20;20.43;;;14.10;;
466;SDS011;72290;48.808;9.222;2023-08-30T06:33:46;24.03;;;15.80;;
466;SDS011;72290;48.808;9.222;2023-08-30T06:36:13;23.87;;;14.00;;
466;SDS011;72290;48.808;9.222;2023-08-30T06:38:41;16.93;;;12.63;;
466;SDS011;72290;48.808;9.222;2023-08-30T06:41:07;19.83;;;14.27;;
466;SDS011;72290;48.808;9.222;2023-08-30T06:43:33;23.60;;;15.37;;
466;SDS011;72290;48.808;9.222;2023-08-30T06:45:59;21.13;;;13.17;;
466;SDS011;72290;48.808;9.222;2023-08-30T06:48:25;22.30;;;13.90;;
466;SDS011;72290;48.808;9.222;2023-08-30T06:50:51;22.47;;;14.33;;
466;SDS011;72290;48.808;9.222;2023-08-30T06:53:17;20.10;;;12.83;;
466;SDS011;72290;48.808;9.222;2023-08-30T06:55:43;20.93;;;13.47;;
466;SDS011;72290;48.808;9.222;2023-08-30T06:58:09;13.17;;;10.50;;
466;SDS011;72290;48.808;9.222;2023-08-30T07:00:35;16.73;;;10.20;;
466;SDS011;72290;48.808;9.222;2023-08-30T07:03:01;18.67;;;12.10;;
466;SDS011;72290;48.808;9.222;2023-08-30T07:05:27;16.47;;;11.63;;
466;SDS011;72290;48.808;9.222;2023-08-30T07:07:53;17.60;;;11.97;;
466;SDS011;72290;48.808;9.222;2023-08-30T07:10:19;18.53;;;12.40;;
466;SDS011;72290;48.808;9.222;2023-08-30T07:12:45;20.23;;;12.50;;
466;SDS011;72290;48.808;9.222;2023-08-30T07:15:13;20.03;;;12.00;;
466;SDS011;72290;48.808;9.222;2023-08-30T07:17:41;15.60;;;10.37;;
466;SDS011;72290;48.808;9.222;2023-08-30T07:20:07;18.67;;;10.30;;
466;SDS011;72290;48.808;9.222;2023-08-30T07:22:34;17.43;;;10.80;;
466;SDS011;72290;48.808;9.222;2023-08-30T07:24:59;14.87;;;10.13;;
466;SDS011;72290;48.808;9.222;2023-08-30T07:27:26;14.77;;;10.33;;
466;SDS011;72290;48.808;9.222;2023-08-30T07:29:53;12.97;;;10.03;;
466;SDS011;72290;48.808;9.222;2023-08-30T07:32:19;18.33;;;10.73;;
466;SDS011;72290;48.808;9.222;2023-08-30T07:34:45;14.20;;;10.13;;
466;SDS011;72290;48.808;9.222;2023-08-30T07:37:20;16.87;;;10.40;;
466;SDS011;72290;48.808;9.222;2023-08-30T07:39:46;15.43;;;10.33;;
466;SDS011;72290;48.808;9.222;2023-08-30T07:42:13;18.80;;;10.63;;
466;SDS011;72290;48.808;9.222;2023-08-30T07:44:39;15.10;;;10.50;;
466;SDS011;72290;48.808;9.222;2023-08-30T07:47:05;15.87;;;9.93;;
466;SDS011;72290;48.808;9.222;2023-08-30T07:49:31;14.77;;;10.33;;
466;SDS011;72290;48.808;9.222;2023-08-30T07:51:57;20.43;;;9.53;;
466;SDS011;72290;48.808;9.222;2023-08-30T07:54:23;16.80;;;10.33;;
466;SDS011;72290;48.808;9.222;2023-08-30T07:56:49;15.70;;;9.77;;
466;SDS011;72290;48.808;9.222;2023-08-30T07:59:15;15.33;;;10.73;;
466;SDS011;72290;48.808;9.222;2023-08-30T08:01:41;14.80;;;10.10;;
466;SDS011;72290;48.808;9.222;2023-08-30T08:04:07;20.33;;;10.30;;
466;SDS011;72290;48.808;9.222;2023-08-30T08:06:33;18.07;;;9.80;;
466;SDS011;72290;48.808;9.222;2023-08-30T08:08:59;19.87;;;10.80;;
466;SDS011;72290;48.808;9.222;2023-08-30T08:11:25;24.27;;;10.90;;
466;SDS011;72290;48.808;9.222;2023-08-30T08:13:51;17.43;;;10.33;;
466;SDS011;72290;48.808;9.222;2023-08-30T08:16:17;13.23;;;9.00;;
466;SDS011;72290;48.808;9.222;2023-08-30T08:18:43;17.10;;;10.03;;
466;SDS011;72290;48.808;9.222;2023-08-30T08:21:09;17.13;;;10.43;;
466;SDS011;72290;48.808;9.222;2023-08-30T08:23:35;13.60;;;8.97;;
466;SDS011;72290;48.808;9.222;2023-08-30T08:26:01;11.90;;;8.93;;
466;SDS011;72290;48.808;9.222;2023-08-30T08:28:30;11.80;;;8.30;;
466;SDS011;72290;48.808;9.222;2023-08-30T08:30:56;13.13;;;8.07;;
466;SDS011;72290;48.808;9.222;2023-08-30T08:33:22;13.13;;;8.63;;
466;SDS011;72290;48.808;9.222;2023-08-30T08:35:49;10.93;;;8.00;;
466;SDS011;72290;48.808;9.222;2023-08-30T08:38:15;18.43;;;7.90;;
466;SDS011;72290;48.808;9.222;2023-08-30T08:40:41;12.30;;;8.03;;
466;SDS011;72290;48.808;9.222;2023-08-30T08:43:09;12.53;;;7.07;;
466;SDS011;72290;48.808;9.222;2023-08-30T08:45:35;14.23;;;7.97;;
466;SDS011;72290;48.808;9.222;2023-08-30T08:48:03;11.87;;;7.60;;
466;SDS011;72290;48.808;9.222;2023-08-30T08:53:23;10.63;;;7.00;;
466;SDS011;72290;48.808;9.222;2023-08-30T08:55:50;11.77;;;6.67;;
466;SDS011;72290;48.808;9.222;2023-08-30T08:58:16;8.10;;;5.47;;
466;SDS011;72290;48.808;9.222;2023-08-30T09:00:42;8.43;;;5.40;;
466;SDS011;72290;48.808;9.222;2023-08-30T09:03:12;5.70;;;5.10;;
466;SDS011;72290;48.808;9.222;2023-08-30T09:05:38;7.50;;;5.47;;
466;SDS011;72290;48.808;9.222;2023-08-30T09:08:04;7.37;;;5.20;;
466;SDS011;72290;48.808;9.222;2023-08-30T09:10:33;7.80;;;4.70;;
466;SDS011;72290;48.808;9.222;2023-08-30T09:13:01;8.40;;;5.30;;
466;SDS011;72290;48.808;9.222;2023-08-30T09:15:33;11.67;;;4.83;;
466;SDS011;72290;48.808;9.222;2023-08-30T09:18:00;6.30;;;4.47;;
466;SDS011;72290;48.808;9.222;2023-08-30T09:20:26;7.20;;;4.10;;
466;SDS011;72290;48.808;9.222;2023-08-30T09:22:52;6.90;;;4.33;;
466;SDS011;72290;48.808;9.222;2023-08-30T09:25:24;7.57;;;4.80;;
466;SDS011;72290;48.808;9.222;2023-08-30T09:27:51;7.27;;;4.10;;
466;SDS011;72290;48.808;9.222;2023-08-30T09:30:23;8.53;;;3.90;;
466;SDS011;72290;48.808;9.222;2023-08-30T09:32:49;4.90;;;4.23;;
466;SDS011;72290;48.808;9.222;2023-08-30T09:35:15;6.20;;;4.20;;
466;SDS011;72290;48.808;9.222;2023-08-30T09:37:47;9.40;;;4.57;;
466;SDS011;72290;48.808;9.222;2023-08-30T09:40:19;5.50;;;4.50;;
466;SDS011;72290;48.808;9.222;2023-08-30T09:42:47;6.27;;;3.70;;
466;SDS011;72290;48.808;9.222;2023-08-30T09:45:24;8.70;;;3.47;;
466;SDS011;72290;48.808;9.222;2023-08-30T09:47:50;5.57;;;3.90;;
466;SDS011;72290;48.808;9.222;2023-08-30T09:50:20;4.50;;;3.73;;
466;SDS011;72290;48.808;9.222;2023-08-30T09:52:46;6.00;;;3.50;;
466;SDS011;72290;48.808;9.222;2023-08-30T09:55:17;3.83;;;3.30;;
466;SDS011;72290;48.808;9.222;2023-08-30T09:57:44;8.33;;;3.60;;
466;SDS011;72290;48.808;9.222;2023-08-30T10:00:12;3.73;;;3.00;;
466;SDS011;72290;48.808;9.222;2023-08-30T10:02:39;6.13;;;3.73;;
466;SDS011;72290;48.808;9.222;2023-08-30T10:05:09;5.87;;;3.30;;
466;SDS011;72290;48.808;9.222;2023-08-30T10:07:37;4.30;;;3.60;;
466;SDS011;72290;48.808;9.222;2023-08-30T10:10:04;8.50;;;3.67;;
466;SDS011;72290;48.808;9.222;2023-08-30T10:12:34;4.07;;;3.63;;
466;SDS011;72290;48.808;9.222;2023-08-30T10:15:04;5.67;;;3.90;;
466;SDS011;72290;48.808;9.222;2023-08-30T10:17:35;4.47;;;3.37;;
466;SDS011;72290;48.808;9.222;2023-08-30T10:20:05;8.37;;;3.87;;
466;SDS011;72290;48.808;9.222;2023-08-30T10:22:32;5.27;;;3.40;;
466;SDS011;72290;48.808;9.222;2023-08-30T10:25:01;3.70;;;3.10;;
466;SDS011;72290;48.808;9.222;2023-08-30T10:27:29;4.63;;;3.90;;
466;SDS011;72290;48.808;9.222;2023-08-30T10:29:58;4.03;;;3.03;;
466;SDS011;72290;48.808;9.222;2023-08-30T10:32:25;5.43;;;3.73;;
466;SDS011;72290;48.808;9.222;2023-08-30T10:34:51;3.40;;;3.17;;
466;SDS011;72290;48.808;9.222;2023-08-30T10:37:27;4.40;;;3.03;;
466;SDS011;72290;48.808;9.222;2023-08-30T10:39:59;4.70;;;3.50;;
466;SDS011;72290;48.808;9.222;2023-08-30T10:42:28;5.83;;;2.67;;
466;SDS011;72290;48.808;9.222;2023-08-30T10:45:06;5.73;;;3.37;;
466;SDS011;72290;48.808;9.222;2023-08-30T10:47:34;4.07;;;2.93;;
466;SDS011;72290;48.808;9.222;2023-08-30T10:50:06;8.13;;;3.40;;
466;SDS011;72290;48.808;9.222;2023-08-30T10:52:37;4.73;;;3.60;;
466;SDS011;72290;48.808;9.222;2023-08-30T10:55:15;4.40;;;3.30;;
466;SDS011;72290;48.808;9.222;2023-08-30T11:02:56;6.00;;;3.50;;
466;SDS011;72290;48.808;9.222;2023-08-30T11:05:24;6.70;;;3.30;;
466;SDS011;72290;48.808;9.222;2023-08-30T11:07:51;5.70;;;3.40;;
466;SDS011;72290;48.808;9.222;2023-08-30T11:10:18;6.70;;;3.70;;
466;SDS011;72290;48.808;9.222;2023-08-30T11:12:49;4.77;;;3.30;;
466;SDS011;72290;48.808;9.222;2023-08-30T11:15:15;3.60;;;3.33;;
466;SDS011;72290;48.808;9.222;2023-08-30T11:17:42;5.60;;;3.10;;
466;SDS011;72290;48.808;9.222;2023-08-30T11:20:10;6.30;;;3.50;;
466;SDS011;72290;48.808;9.222;2023-08-30T11:22:37;2.50;;;2.33;;
466;SDS011;72290;48.808;9.222;2023-08-30T11:25:03;2.70;;;2.47;;
466;SDS011;72290;48.808;9.222;2023-08-30T11:27:29;7.13;;;3.47;;
466;SDS011;72290;48.808;9.222;2023-08-30T11:29:59;4.63;;;3.00;;
466;SDS011;72290;48.808;9.222;2023-08-30T11:32:26;3.30;;;2.53;;
466;SDS011;72290;48.808;9.222;2023-08-30T11:34:55;6.20;;;3.00;;
466;SDS011;72290;48.808;9.222;2023-08-30T11:37:23;4.93;;;2.67;;
466;SDS011;72290;48.808;9.222;2023-08-30T11:39:52;2.70;;;2.57;;
466;SDS011;72290;48.808;9.222;2023-08-30T11:42:18;3.27;;;2.40;;
466;SDS011;72290;48.808;9.222;2023-08-30T11:44:45;3.47;;;2.97;;
466;SDS011;72290;48.808;9.222;2023-08-30T11:47:11;5.53;;;2.80;;
466;SDS011;72290;48.808;9.222;2023-08-30T11:49:48;8.20;;;3.40;;
466;SDS011;72290;48.808;9.222;2023-08-30T11:52:18;6.10;;;3.73;;
466;SDS011;72290;48.808;9.222;2023-08-30T11:54:46;7.30;;;4.40;;
466;SDS011;72290;48.808;9.222;2023-08-30T11:57:13;5.70;;;4.53;;
466;SDS011;72290;48.808;9.222;2023-08-30T11:59:40;9.13;;;5.53;;
466;SDS011;72290;48.808;9.222;2023-08-30T12:02:07;10.10;;;6.00;;
466;SDS011;72290;48.808;9.222;2023-08-30T12:04:39;13.27;;;6.10;;
466;SDS011;72290;48.808;9.222;2023-08-30T12:07:06;7.53;;;6.23;;
466;SDS011;72290;48.808;9.222;2023-08-30T12:09:32;10.57;;;6.40;;
466;SDS011;72290;48.808;9.222;2023-08-30T12:12:10;6.80;;;5.80;;
466;SDS011;72290;48.808;9.222;2023-08-30T12:14:38;7.77;;;5.73;;
466;SDS011;72290;48.808;9.222;2023-08-30T12:17:05;6.77;;;5.50;;
466;SDS011;72290;48.808;9.222;2023-08-30T12:19:38;7.00;;;5.20;;
466;SDS011;72290;48.808;9.222;2023-08-30T12:22:07;9.37;;;6.03;;
466;SDS011;72290;48.808;9.222;2023-08-30T12:24:45;8.03;;;6.20;;
466;SDS011;72290;48.808;9.222;2023-08-30T12:27:12;8.80;;;5.50;;
466;SDS011;72290;48.808;9.222;2023-08-30T12:29:38;9.83;;;5.87;;
466;SDS011;72290;48.808;9.222;2023-08-30T12:32:05;6.87;;;5.30;;
466;SDS011;72290;48.808;9.222;2023-08-30T12:34:31;7.23;;;4.77;;
466;SDS011;72290;48.808;9.222;2023-08-30T12:36:57;7.97;;;5.87;;
466;SDS011;72290;48.808;9.222;2023-08-30T12:39:23;8.17;;;5.30;;
466;SDS011;72290;48.808;9.222;2023-08-30T12:41:49;8.03;;;5.47;;
466;SDS011;72290;48.808;9.222;2023-08-30T12:44:15;5.80;;;5.10;;
466;SDS011;72290;48.808;9.222;2023-08-30T12:46:41;5.20;;;4.57;;
466;SDS011;72290;48.808;9.222;2023-08-30T12:49:07;8.20;;;6.00;;
466;SDS011;72290;48.808;9.222;2023-08-30T12:51:33;5.67;;;5.17;;
466;SDS011;72290;48.808;9.222;2023-08-30T12:53:59;9.80;;;4.93;;
466;SDS011;72290;48.808;9.222;2023-08-30T12:56:25;6.73;;;5.03;;
466;SDS011;72290;48.808;9.222;2023-08-30T12:58:52;4.50;;;3.80;;
466;SDS011;72290;48.808;9.222;2023-08-30T13:01:18;6.77;;;4.70;;
466;SDS011;72290;48.808;9.222;2023-08-30T13:03:44;5.97;;;4.80;;
466;SDS011;72290;48.808;9.222;2023-08-30T13:06:10;6.60;;;5.00;;
466;SDS011;72290;48.808;9.222;2023-08-30T13:08:36;13.40;;;4.10;;
466;SDS011;72290;48.808;9.222;2023-08-30T13:11:02;8.73;;;4.53;;
466;SDS011;72290;48.808;9.222;2023-08-30T13:13:28;21.90;;;16.43;;
466;SDS011;72290;48.808;9.222;2023-08-30T13:15:54;7.07;;;4.37;;
466;SDS011;72290;48.808;9.222;2023-08-30T13:18:19;4.83;;;3.47;;
466;SDS011;72290;48.808;9.222;2023-08-30T13:20:46;3.87;;;3.23;;
466;SDS011;72290;48.808;9.222;2023-08-30T13:23:12;3.90;;;3.30;;
466;SDS011;72290;48.808;9.222;2023-08-30T13:25:41;3.40;;;3.10;;
466;SDS011;72290;48.808;9.222;2023-08-30T13:28:07;5.87;;;3.70;;
466;SDS011;72290;48.808;9.222;2023-08-30T13:30:33;7.53;;;4.57;;
466;SDS011;72290;48.808;9.222;2023-08-30T13:32:59;6.93;;;3.87;;
466;SDS011;72290;48.808;9.222;2023-08-30T13:35:25;5.60;;;3.93;;
466;SDS011;72290;48.808;9.222;2023-08-30T13:37:51;5.47;;;3.63;;
466;SDS011;72290;48.808;9.222;2023-08-30T13:40:17;8.60;;;4.27;;
466;SDS011;72290;48.808;9.222;2023-08-30T13:42:43;3.80;;;3.30;;
466;SDS011;72290;48.808;9.222;2023-08-30T13:45:09;8.63;;;4.00;;
466;SDS011;72290;48.808;9.222;2023-08-30T13:47:35;6.73;;;3.67;;
466;SDS011;72290;48.808;9.222;2023-08-30T13:50:01;4.20;;;3.27;;
466;SDS011;72290;48.808;9.222;2023-08-30T13:52:29;7.27;;;4.20;;
466;SDS011;72290;48.808;9.222;2023-08-30T13:54:55;8.93;;;4.43;;
466;SDS011;72290;48.808;9.222;2023-08-30T13:57:21;6.83;;;3.70;;
466;SDS011;72290;48.808;9.222;2023-08-30T13:59:47;5.30;;;3.70;;
466;SDS011;72290;48.808;9.222;2023-08-30T14:02:13;6.70;;;4.40;;
466;SDS011;72290;48.808;9.222;2023-08-30T14:04:39;5.57;;;3.57;;
466;SDS011;72290;48.808;9.222;2023-08-30T14:07:05;8.77;;;3.80;;
466;SDS011;72290;48.808;9.222;2023-08-30T14:09:31;5.60;;;3.23;;
466;SDS011;72290;48.808;9.222;2023-08-30T14:11:57;7.10;;;4.17;;
466;SDS011;72290;48.808;9.222;2023-08-30T14:14:23;7.30;;;3.87;;
466;SDS011;72290;48.808;9.222;2023-08-30T14:16:49;5.13;;;3.30;;
466;SDS011;72290;48.808;9.222;2023-08-30T14:19:15;8.23;;;4.07;;
466;SDS011;72290;48.808;9.222;2023-08-30T14:21:42;6.40;;;3.60;;
466;SDS011;72290;48.808;9.222;2023-08-30T14:24:08;6.23;;;3.57;;
466;SDS011;72290;48.808;9.222;2023-08-30T14:26:34;5.70;;;3.17;;
466;SDS011;72290;48.808;9.222;2023-08-30T14:29:00;5.20;;;3.13;;
466;SDS011;72290;48.808;9.222;2023-08-30T14:31:26;6.03;;;3.50;;
466;SDS011;72290;48.808;9.222;2023-08-30T14:33:54;7.00;;;3.50;;
466;SDS011;72290;48.808;9.222;2023-08-30T14:36:21;3.83;;;3.03;;
466;SDS011;72290;48.808;9.222;2023-08-30T14:38:47;6.53;;;3.40;;
466;SDS011;72290;48.808;9.222;2023-08-30T14:41:13;8.30;;;3.90;;
466;SDS011;72290;48.808;9.222;2023-08-30T14:43:41;8.77;;;3.80;;
466;SDS011;72290;48.808;9.222;2023-08-30T14:46:07;6.30;;;3.70;;
466;SDS011;72290;48.808;9.222;2023-08-30T14:48:33;4.40;;;3.60;;
466;SDS011;72290;48.808;9.222;2023-08-30T14:50:59;6.27;;;3.50;;
466;SDS011;72290;48.808;9.222;2023-08-30T14:53:25;7.57;;;3.87;;
466;SDS011;72290;48.808;9.222;2023-08-30T14:55:51;5.10;;;3.87;;
466;SDS011;72290;48.808;9.222;2023-08-30T14:58:17;8.37;;;3.70;;
466;SDS011;72290;48.808;9.222;2023-08-30T15:00:43;5.57;;;3.60;;
466;SDS011;72290;48.808;9.222;2023-08-30T15:03:09;8.93;;;4.30;;
466;SDS011;72290;48.808;9.222;2023-08-30T15:05:35;8.97;;;4.60;;
466;SDS011;72290;48.808;9.222;2023-08-30T15:08:01;6.13;;;4.40;;
466;SDS011;72290;48.808;9.222;2023-08-30T15:10:27;13.13;;;4.97;;
466;SDS011;72290;48.808;9.222;2023-08-30T15:12:53;8.27;;;4.20;;
466;SDS011;72290;48.808;9.222;2023-08-30T15:15:19;7.83;;;4.63;;
466;SDS011;72290;48.808;9.222;2023-08-30T15:17:46;7.60;;;4.03;;
466;SDS011;72290;48.808;9.222;2023-08-30T15:20:12;5.60;;;3.93;;
466;SDS011;72290;48.808;9.222;2023-08-30T15:22:39;6.80;;;4.30;;
466;SDS011;72290;48.808;9.222;2023-08-30T15:25:05;8.37;;;4.00;;
466;SDS011;72290;48.808;9.222;2023-08-30T15:27:32;9.50;;;4.50;;
466;SDS011;72290;48.808;9.222;2023-08-30T15:29:58;6.03;;;3.53;;
466;SDS011;72290;48.808;9.222;2023-08-30T15:32:24;10.00;;;4.07;;
466;SDS011;72290;48.808;9.222;2023-08-30T15:34:50;5.63;;;4.30;;
466;SDS011;72290;48.808;9.222;2023-08-30T15:37:16;6.30;;;4.10;;
466;SDS011;72290;48.808;9.222;2023-08-30T15:39:42;8.87;;;3.83;;
466;SDS011;72290;48.808;9.222;2023-08-30T15:42:08;6.47;;;3.70;;
466;SDS011;72290;48.808;9.222;2023-08-30T15:44:35;6.03;;;3.93;;
466;SDS011;72290;48.808;9.222;2023-08-30T15:47:01;4.80;;;3.10;;
466;SDS011;72290;48.808;9.222;2023-08-30T15:49:27;4.30;;;3.50;;
466;SDS011;72290;48.808;9.222;2023-08-30T15:51:53;3.87;;;2.97;;
466;SDS011;72290;48.808;9.222;2023-08-30T15:54:19;6.50;;;4.13;;
466;SDS011;72290;48.808;9.222;2023-08-30T15:56:45;6.77;;;3.13;;
466;SDS011;72290;48.808;9.222;2023-08-30T15:59:11;11.13;;;3.80;;
466;SDS011;72290;48.808;9.222;2023-08-30T16:01:37;5.17;;;3.73;;
466;SDS011;72290;48.808;9.222;2023-08-30T16:04:03;4.50;;;2.90;;
466;SDS011;72290;48.808;9.222;2023-08-30T16:06:29;7.20;;;3.67;;
466;SDS011;72290;48.808;9.222;2023-08-30T16:08:55;6.17;;;4.50;;
466;SDS011;72290;48.808;9.222;2023-08-30T16:11:21;3.43;;;2.93;;
466;SDS011;72290;48.808;9.222;2023-08-30T16:13:47;5.13;;;3.93;;
466;SDS011;72290;48.808;9.222;2023-08-30T16:16:14;6.00;;;4.00;;
466;SDS011;72290;48.808;9.222;2023-08-30T16:18:40;5.37;;;3.90;;
466;SDS011;72290;48.808;9.222;2023-08-30T16:21:06;3.80;;;2.83;;
466;SDS011;72290;48.808;9.222;2023-08-30T16:23:32;6.13;;;3.73;;
466;SDS011;72290;48.808;9.222;2023-08-30T16:25:58;7.10;;;4.20;;
466;SDS011;72290;48.808;9.222;2023-08-30T16:28:24;5.27;;;3.87;;
466;SDS011;72290;48.808;9.222;2023-08-30T16:30:50;4.80;;;3.67;;
466;SDS011;72290;48.808;9.222;2023-08-30T16:36:20;9.30;;;4.40;;
466;SDS011;72290;48.808;9.222;2023-08-30T16:38:46;5.40;;;3.63;;
466;SDS011;72290;48.808;9.222;2023-08-30T16:41:13;6.17;;;3.93;;
466;SDS011;72290;48.808;9.222;2023-08-30T16:43:39;4.87;;;4.07;;
466;SDS011;72290;48.808;9.222;2023-08-30T16:46:05;5.70;;;3.93;;
466;SDS011;72290;48.808;9.222;2023-08-30T16:48:31;4.30;;;3.80;;
466;SDS011;72290;48.808;9.222;2023-08-30T16:50:57;7.47;;;3.70;;
466;SDS011;72290;48.808;9.222;2023-08-30T16:53:23;4.63;;;3.60;;
466;SDS011;72290;48.808;9.222;2023-08-30T16:55:49;4.97;;;3.90;;
466;SDS011;72290;48.808;9.222;2023-08-30T16:58:15;5.67;;;4.07;;
466;SDS011;72290;48.808;9.222;2023-08-30T17:00:41;7.40;;;3.83;;
466;SDS011;72290;48.808;9.222;2023-08-30T17:03:07;4.87;;;3.90;;
466;SDS011;72290;48.808;9.222;2023-08-30T17:05:37;6.87;;;4.50;;
466;SDS011;72290;48.808;9.222;2023-08-30T17:08:03;9.03;;;4.70;;
466;SDS011;72290;48.808;9.222;2023-08-30T17:10:30;6.23;;;4.37;;
466;SDS011;72290;48.808;9.222;2023-08-30T17:12:56;4.90;;;3.97;;
466;SDS011;72290;48.808;9.222;2023-08-30T17:15:23;6.37;;;4.20;;
466;SDS011;72290;48.808;9.222;2023-08-30T17:17:49;7.10;;;4.90;;
466;SDS011;72290;48.808;9.222;2023-08-30T17:20:15;7.20;;;4.40;;
466;SDS011;72290;48.808;9.222;2023-08-30T17:22:41;6.10;;;4.10;;
466;SDS011;72290;48.808;9.222;2023-08-30T17:25:07;7.00;;;4.33;;
466;SDS011;72290;48.808;9.222;2023-08-30T17:27:33;7.87;;;4.00;;
466;SDS011;72290;48.808;9.222;2023-08-30T17:30:00;7.47;;;4.57;;
466;SDS011;72290;48.808;9.222;2023-08-30T17:32:28;8.90;;;4.30;;
466;SDS011;72290;48.808;9.222;2023-08-30T17:34:54;9.40;;;4.50;;
466;SDS011;72290;48.808;9.222;2023-08-30T17:37:20;6.60;;;4.53;;
466;SDS011;72290;48.808;9.222;2023-08-30T17:39:46;5.00;;;3.63;;
466;SDS011;72290;48.808;9.222;2023-08-30T17:42:11;7.93;;;4.47;;
466;SDS011;72290;48.808;9.222;2023-08-30T17:44:38;7.10;;;4.53;;
466;SDS011;72290;48.808;9.222;2023-08-30T17:47:04;12.93;;;5.37;;
466;SDS011;72290;48.808;9.222;2023-08-30T17:49:30;6.30;;;4.50;;
466;SDS011;72290;48.808;9.222;2023-08-30T17:51:56;6.73;;;4.83;;
466;SDS011;72290;48.808;9.222;2023-08-30T17:54:22;7.93;;;5.27;;
466;SDS011;72290;48.808;9.222;2023-08-30T17:56:48;8.90;;;5.20;;
466;SDS011;72290;48.808;9.222;2023-08-30T17:59:15;9.03;;;5.50;;
466;SDS011;72290;48.808;9.222;2023-08-30T18:01:42;7.63;;;5.70;;
466;SDS011;72290;48.808;9.222;2023-08-30T18:04:08;8.57;;;5.30;;
466;SDS011;72290;48.808;9.222;2023-08-30T18:06:34;12.20;;;6.40;;
466;SDS011;72290;48.808;9.222;2023-08-30T18:09:00;9.00;;;5.60;;
466;SDS011;72290;48.808;9.222;2023-08-30T18:11:26;10.30;;;5.93;;
466;SDS011;72290;48.808;9.222;2023-08-30T18:13:52;13.33;;;5.80;;
466;SDS011;72290;48.808;9.222;2023-08-30T18:16:18;11.77;;;6.67;;
466;SDS011;72290;48.808;9.222;2023-08-30T18:18:48;13.70;;;6.10;;
466;SDS011;72290;48.808;9.222;2023-08-30T18:21:15;14.90;;;7.53;;
466;SDS011;72290;48.808;9.222;2023-08-30T18:23:42;11.53;;;6.60;;
466;SDS011;72290;48.808;9.222;2023-08-30T18:26:10;15.13;;;7.47;;
466;SDS011;72290;48.808;9.222;2023-08-30T18:28:36;9.10;;;6.67;;
466;SDS011;72290;48.808;9.222;2023-08-30T18:31:02;8.83;;;6.00;;
466;SDS011;72290;48.808;9.222;2023-08-30T18:33:28;14.53;;;5.93;;
466;SDS011;72290;48.808;9.222;2023-08-30T18:35:54;10.70;;;6.37;;
466;SDS011;72290;48.808;9.222;2023-08-30T18:38:21;8.90;;;6.23;;
466;SDS011;72290;48.808;9.222;2023-08-30T18:40:46;12.20;;;6.40;;
466;SDS011;72290;48.808;9.222;2023-08-30T18:43:12;9.90;;;6.43;;
466;SDS011;72290;48.808;9.222;2023-08-30T18:45:43;8.73;;;6.07;;
466;SDS011;72290;48.808;9.222;2023-08-30T18:48:10;8.60;;;5.80;;
466;SDS011;72290;48.808;9.222;2023-08-30T18:50:39;9.27;;;5.73;;
466;SDS011;72290;48.808;9.222;2023-08-30T18:53:05;8.53;;;5.60;;
466;SDS011;72290;48.808;9.222;2023-08-30T18:55:31;5.27;;;4.27;;
466;SDS011;72290;48.808;9.222;2023-08-30T18:57:57;7.20;;;5.17;;
466;SDS011;72290;48.808;9.222;2023-08-30T19:00:23;7.13;;;4.17;;
466;SDS011;72290;48.808;9.222;2023-08-30T19:02:49;7.90;;;5.30;;
466;SDS011;72290;48.808;9.222;2023-08-30T19:05:15;7.90;;;5.40;;
466;SDS011;72290;48.808;9.222;2023-08-30T19:07:41;11.67;;;6.00;;
466;SDS011;72290;48.808;9.222;2023-08-30T19:10:08;11.83;;;5.47;;
466;SDS011;72290;48.808;9.222;2023-08-30T19:12:34;18.27;;;7.87;;
466;SDS011;72290;48.808;9.222;2023-08-30T19:15:00;15.03;;;7.17;;
466;SDS011;72290;48.808;9.222;2023-08-30T19:17:27;7.53;;;5.10;;
466;SDS011;72290;48.808;9.222;2023-08-30T19:19:53;10.13;;;5.23;;
466;SDS011;72290;48.808;9.222;2023-08-30T19:22:19;13.73;;;6.53;;
466;SDS011;72290;48.808;9.222;2023-08-30T19:24:46;8.17;;;5.13;;
466;SDS011;72290;48.808;9.222;2023-08-30T19:27:12;9.17;;;5.53;;
466;SDS011;72290;48.808;9.222;2023-08-30T19:29:38;10.10;;;5.40;;
466;SDS011;72290;48.808;9.222;2023-08-30T19:32:04;7.33;;;5.23;;
466;SDS011;72290;48.808;9.222;2023-08-30T19:34:32;7.77;;;5.60;;
466;SDS011;72290;48.808;9.222;2023-08-30T19:36:58;7.37;;;5.20;;
466;SDS011;72290;48.808;9.222;2023-08-30T19:39:24;6.33;;;4.80;;
466;SDS011;72290;48.808;9.222;2023-08-30T19:41:50;8.80;;;4.87;;
466;SDS011;72290;48.808;9.222;2023-08-30T19:44:16;8.23;;;4.33;;
466;SDS011;72290;48.808;9.222;2023-08-30T19:46:42;9.03;;;4.70;;
466;SDS011;72290;48.808;9.222;2023-08-30T19:49:08;6.50;;;5.10;;
466;SDS011;72290;48.808;9.222;2023-08-30T19:51:34;7.77;;;4.43;;
466;SDS011;72290;48.808;9.222;2023-08-30T19:54:00;7.10;;;4.63;;
466;SDS011;72290;48.808;9.222;2023-08-30T19:56:26;6.47;;;4.50;;
466;SDS011;72290;48.808;9.222;2023-08-30T19:58:52;5.83;;;4.17;;
466;SDS011;72290;48.808;9.222;2023-08-30T20:01:18;8.70;;;4.50;;